Owensville, IN (47665)

12:15 PM CST on February 19, 2017 (GMT -0600)
White Church area | | Change Station

Elev 466 ft 38.33 °N, 87.61 °W | Updated 28 seconds ago

Overcast
Overcast
53.1 °F
Feels Like 53.1 °F
N
0.0
Wind Variable Wind from NNE

Today
High -- | Low -- °F
--% Chance of Precip.
Yesterday
High -- | Low -- °F
Precip. -- in
Pressure 30.12 in
Visibility 6.0 miles
Clouds Overcast 900 ft
Dew Point 52 °F
Humidity 98%
Rainfall 0.00 in
Snow Depth Not available.
6:35 AM 5:33 PM
Last Quarter, 41% visible
METAR KEVV 191754Z 17004KT 6SM BR OVC009 12/09 A3011 RMK AO2 SLP198 T01220094 10128 20100 58001
Pressure 30.12 in
Visibility 6.0 miles
Clouds Overcast 900 ft
Dew Point 52 °F
Humidity 98%
Rainfall 0.00 in
Snow Depth Not available.
6:35 AM 5:33 PM
Last Quarter, 41% visible
METAR KEVV 191754Z 17004KT 6SM BR OVC009 12/09 A3011 RMK AO2 SLP198 T01220094 10128 20100 58001

Get Your Daily Forecast Email!

Thanks for signing up!

Be on the lookout for a verification email in your inbox.

You'll start receiving the daily forecast at 8 AM.

×

10-Day Weather Forecast

Almanac

Astronomy

Feb. 19, 2017 Rise Set
Actual Time
Civil Twilight
Nautical Twilight
Astronomical Twilight
Moon
Length of Visible Light
Length of Day
Tomorrow will be .
, % of the Moon is Illuminated

Today's Extremes

State Highs State Lows

Community

WunderPhotos

Upload Photos

1,962,540 photos uploaded!

WunderBlog® & News

Nearby

Air Quality

  Air Quality AQ Index Pollutant
Not available.

Snow Depth

Station Depth Elevation

Earthquake Activity

City Distance Mag. Time & Date
Minimum magnitude displayed is 2.5.

Coastal Water Temperatures

Place Temperature

Stations

Nearby Weather Stations

Station Location Temp. Windchill Dew Point Humidity Wind Precip. Elev Updated Type
                   

Watches & Warnings

There are currently no watches in effect.